Time;durP1;ratioP1;P1;durP2;ratioP2;P2;SDS_P1;SDS_P2;PMS_P1;PMS_P2;Temp;Humidity;BMP_temperature;BMP_pressure;BME280_temperature;BME280_humidity;BME280_pressure;Samples;Min_cycle;Max_cycle;Signal;HPM_P1;HPM_P2
2023/12/27 00:00:34;;;;;;;6.88;4.10;;;;;;;;;;5049353;28;20021;-59
2023/12/27 00:03:00;;;;;;;7.00;4.10;;;;;;;;;;5049507;28;20044;-59
2023/12/27 00:05:26;;;;;;;6.43;3.83;;;;;;;;;;5049973;28;20096;-61
2023/12/27 00:07:52;;;;;;;6.30;3.72;;;;;;;;;;5051796;28;20434;-61
2023/12/27 00:10:18;;;;;;;6.20;3.70;;;;;;;;;;5051034;28;20061;-59
2023/12/27 00:12:44;;;;;;;6.10;3.60;;;;;;;;;;5051007;28;20029;-54
2023/12/27 00:15:10;;;;;;;6.32;3.80;;;;;;;;;;5051043;28;20394;-61
2023/12/27 00:17:36;;;;;;;6.80;4.07;;;;;;;;;;5050352;28;20028;-59
2023/12/27 00:20:02;;;;;;;5.85;3.50;;;;;;;;;;5051428;28;20036;-59
2023/12/27 00:22:28;;;;;;;5.80;3.40;;;;;;;;;;5050836;28;20466;-61
2023/12/27 00:24:55;;;;;;;5.70;3.40;;;;;;;;;;5051581;28;20060;-58
2023/12/27 00:27:21;;;;;;;5.30;3.20;;;;;;;;;;5045826;28;20021;-59
2023/12/27 00:29:47;;;;;;;5.32;3.20;;;;;;;;;;5048000;28;20039;-61
2023/12/27 00:32:13;;;;;;;5.80;3.40;;;;;;;;;;5051421;28;20028;-60
2023/12/27 00:34:39;;;;;;;5.30;3.20;;;;;;;;;;5059317;28;20029;-61
2023/12/27 00:37:05;;;;;;;5.35;3.20;;;;;;;;;;5051310;28;20104;-59
2023/12/27 00:39:31;;;;;;;5.63;3.30;;;;;;;;;;5059226;28;20032;-60
2023/12/27 00:41:57;;;;;;;5.88;3.50;;;;;;;;;;5056033;28;20040;-61
2023/12/27 00:44:24;;;;;;;5.30;3.10;;;;;;;;;;5071771;28;20032;-54
2023/12/27 00:46:50;;;;;;;5.15;3.05;;;;;;;;;;5071164;28;20037;-58
2023/12/27 00:49:16;;;;;;;5.40;3.17;;;;;;;;;;5060577;28;20179;-59
2023/12/27 00:51:43;;;;;;;4.80;2.90;;;;;;;;;;5052404;28;20029;-60
2023/12/27 00:54:09;;;;;;;4.63;2.75;;;;;;;;;;5054390;28;20017;-60
2023/12/27 00:56:36;;;;;;;5.00;3.00;;;;;;;;;;5053761;28;20033;-61
2023/12/27 00:59:02;;;;;;;6.30;4.88;;;;;;;;;;5052711;28;20083;-61
2023/12/27 01:01:31;;;;;;;5.00;3.00;;;;;;;;;;5052436;28;20025;-61
2023/12/27 01:03:57;;;;;;;4.70;2.80;;;;;;;;;;5053363;28;20028;-60
2023/12/27 01:06:23;;;;;;;4.90;2.90;;;;;;;;;;5053512;28;20029;-61
2023/12/27 01:08:49;;;;;;;4.82;2.90;;;;;;;;;;5052727;28;20032;-62
2023/12/27 01:11:15;;;;;;;4.70;2.80;;;;;;;;;;5052913;28;20077;-61
2023/12/27 01:13:42;;;;;;;4.70;2.80;;;;;;;;;;5053061;28;20048;-60
2023/12/27 01:16:08;;;;;;;4.50;2.70;;;;;;;;;;5054614;28;20029;-61
2023/12/27 01:18:34;;;;;;;4.40;2.63;;;;;;;;;;5053729;28;20399;-61
2023/12/27 01:21:00;;;;;;;4.28;2.58;;;;;;;;;;5053558;28;20033;-61
2023/12/27 01:23:27;;;;;;;4.70;2.80;;;;;;;;;;5053436;28;20025;-60
2023/12/27 01:25:53;;;;;;;4.47;2.65;;;;;;;;;;5052185;28;20047;-61
2023/12/27 01:28:19;;;;;;;4.50;2.70;;;;;;;;;;5052952;28;20068;-62
2023/12/27 01:30:45;;;;;;;4.40;2.60;;;;;;;;;;5053416;28;20013;-61
2023/12/27 01:33:11;;;;;;;4.30;2.60;;;;;;;;;;5052222;28;20151;-61
2023/12/27 01:35:37;;;;;;;4.40;2.60;;;;;;;;;;5053509;28;20116;-59
2023/12/27 01:38:03;;;;;;;4.60;2.70;;;;;;;;;;5054992;28;20115;-60
2023/12/27 01:40:30;;;;;;;4.20;2.50;;;;;;;;;;5057319;28;20025;-60
2023/12/27 01:42:56;;;;;;;4.20;2.50;;;;;;;;;;5056707;28;20430;-60
2023/12/27 01:45:22;;;;;;;4.55;2.70;;;;;;;;;;5056563;28;20079;-62
2023/12/27 01:47:48;;;;;;;4.60;2.80;;;;;;;;;;5055983;28;20028;-61
2023/12/27 01:50:14;;;;;;;4.40;2.60;;;;;;;;;;5056375;28;20112;-60
2023/12/27 01:52:42;;;;;;;4.20;2.50;;;;;;;;;;5057319;28;20032;-62
2023/12/27 01:55:09;;;;;;;5.30;3.88;;;;;;;;;;5056737;28;20032;-59
2023/12/27 01:57:38;;;;;;;4.43;2.63;;;;;;;;;;5057477;28;20033;-59
2023/12/27 02:00:06;;;;;;;4.38;2.60;;;;;;;;;;5056851;28;20075;-60
2023/12/27 02:02:32;;;;;;;4.70;2.80;;;;;;;;;;5056303;28;20077;-60
2023/12/27 02:04:59;;;;;;;4.60;2.72;;;;;;;;;;5056408;28;20029;-61
2023/12/27 02:07:25;;;;;;;4.60;2.70;;;;;;;;;;5055829;28;20029;-61
2023/12/27 02:09:51;;;;;;;4.60;2.70;;;;;;;;;;5054822;28;20032;-60
2023/12/27 02:12:26;;;;;;;4.40;2.60;;;;;;;;;;5055183;28;20029;-61
2023/12/27 02:14:53;;;;;;;4.25;2.60;;;;;;;;;;5054038;28;20025;-62
2023/12/27 02:17:19;;;;;;;4.22;2.50;;;;;;;;;;5055685;28;20123;-62
2023/12/27 02:19:46;;;;;;;4.47;2.65;;;;;;;;;;5055098;28;20490;-58
2023/12/27 02:22:13;;;;;;;4.20;2.53;;;;;;;;;;5054669;28;20029;-59
2023/12/27 02:24:40;;;;;;;4.60;2.70;;;;;;;;;;5054920;28;20455;-60
2023/12/27 02:27:06;;;;;;;4.38;2.60;;;;;;;;;;5053178;28;20072;-60
2023/12/27 02:29:32;;;;;;;4.45;2.65;;;;;;;;;;5056384;28;20021;-62
2023/12/27 02:31:58;;;;;;;4.20;2.50;;;;;;;;;;5055887;28;20047;-60
2023/12/27 02:34:24;;;;;;;4.40;2.67;;;;;;;;;;5055823;28;20021;-62
2023/12/27 02:36:50;;;;;;;4.68;2.80;;;;;;;;;;5055372;28;20032;-59
2023/12/27 02:39:16;;;;;;;4.40;2.60;;;;;;;;;;5056464;28;20032;-59
2023/12/27 02:41:42;;;;;;;4.70;2.80;;;;;;;;;;5056237;28;20037;-60
2023/12/27 02:44:08;;;;;;;4.75;2.80;;;;;;;;;;5056138;28;20151;-58
2023/12/27 02:46:34;;;;;;;4.57;2.70;;;;;;;;;;5056679;28;20025;-59
2023/12/27 02:49:00;;;;;;;4.50;2.70;;;;;;;;;;5055581;28;20032;-60
2023/12/27 02:51:26;;;;;;;5.13;3.13;;;;;;;;;;5054666;28;20406;-61
2023/12/27 02:53:52;;;;;;;4.80;2.80;;;;;;;;;;5056132;28;20021;-60
2023/12/27 02:56:18;;;;;;;4.85;2.90;;;;;;;;;;5056246;28;20080;-60
2023/12/27 02:58:44;;;;;;;5.00;3.00;;;;;;;;;;5058694;28;20029;-60
2023/12/27 03:01:10;;;;;;;4.70;2.80;;;;;;;;;;5063538;28;20021;-60
2023/12/27 03:03:36;;;;;;;4.75;2.80;;;;;;;;;;5065599;28;20029;-61
2023/12/27 03:06:02;;;;;;;4.70;2.80;;;;;;;;;;5068296;28;20029;-60
2023/12/27 03:08:28;;;;;;;4.60;2.70;;;;;;;;;;5064851;28;20017;-59
2023/12/27 03:10:55;;;;;;;4.70;2.80;;;;;;;;;;5057190;28;20025;-58
2023/12/27 03:13:22;;;;;;;4.70;2.80;;;;;;;;;;5055085;28;20548;-59
2023/12/27 03:15:47;;;;;;;4.90;2.90;;;;;;;;;;5054896;28;20486;-58
2023/12/27 03:18:14;;;;;;;4.55;2.70;;;;;;;;;;5050470;28;20045;-58
2023/12/27 03:20:40;;;;;;;4.88;2.90;;;;;;;;;;5051062;28;20028;-54
2023/12/27 03:23:06;;;;;;;4.68;2.80;;;;;;;;;;5053866;28;20048;-59
2023/12/27 03:25:32;;;;;;;4.70;2.80;;;;;;;;;;5054808;28;20112;-59
2023/12/27 03:27:58;;;;;;;4.55;2.70;;;;;;;;;;5057856;28;20129;-59
2023/12/27 03:30:24;;;;;;;4.50;2.70;;;;;;;;;;5061161;28;20021;-61
2023/12/27 03:32:50;;;;;;;4.57;2.70;;;;;;;;;;5055385;28;20029;-60
2023/12/27 03:35:16;;;;;;;4.50;2.70;;;;;;;;;;5053895;28;20024;-58
2023/12/27 03:37:44;;;;;;;4.55;2.70;;;;;;;;;;5053359;28;20025;-59
2023/12/27 03:40:10;;;;;;;;;;;;;;;;;;5048665;28;20480;-57
2023/12/27 03:42:36;;;;;;;4.55;2.70;;;;;;;;;;5048687;28;19908;-58
2023/12/27 03:45:02;;;;;;;4.50;2.70;;;;;;;;;;5060751;28;20048;-56
2023/12/27 03:47:28;;;;;;;4.50;2.70;;;;;;;;;;5052539;28;20025;-58
2023/12/27 03:49:54;;;;;;;4.43;2.70;;;;;;;;;;5051510;28;20057;-59
2023/12/27 03:52:20;;;;;;;4.35;2.60;;;;;;;;;;5072504;28;20021;-57
2023/12/27 03:54:46;;;;;;;4.60;2.78;;;;;;;;;;5073017;28;20084;-56
2023/12/27 03:57:12;;;;;;;6.05;5.05;;;;;;;;;;5072897;28;20024;-60
2023/12/27 03:59:39;;;;;;;4.70;2.80;;;;;;;;;;5074625;28;20104;-59
2023/12/27 04:02:05;;;;;;;4.43;2.63;;;;;;;;;;5073702;28;20028;-59
2023/12/27 04:04:31;;;;;;;6.28;3.13;;;;;;;;;;5074502;28;20020;-57
2023/12/27 04:06:57;;;;;;;4.25;2.55;;;;;;;;;;5072834;28;20028;-60
2023/12/27 04:09:23;;;;;;;4.30;2.60;;;;;;;;;;5075111;28;20076;-59
2023/12/27 04:11:49;;;;;;;4.70;2.80;;;;;;;;;;5075096;28;20028;-59
2023/12/27 04:14:16;;;;;;;4.32;2.60;;;;;;;;;;5072713;28;20061;-58
2023/12/27 04:16:42;;;;;;;4.50;2.70;;;;;;;;;;5074881;28;20178;-60
2023/12/27 04:19:07;;;;;;;4.50;2.70;;;;;;;;;;5074842;28;20508;-58
2023/12/27 04:21:33;;;;;;;4.70;2.80;;;;;;;;;;5074412;28;20064;-61
2023/12/27 04:23:59;;;;;;;4.80;2.80;;;;;;;;;;5074731;28;20397;-59
2023/12/27 04:26:25;;;;;;;4.30;2.60;;;;;;;;;;5074635;28;20067;-58
2023/12/27 04:28:51;;;;;;;4.63;2.80;;;;;;;;;;5074928;28;20103;-57
2023/12/27 04:31:17;;;;;;;4.60;2.78;;;;;;;;;;5074429;28;20267;-59
2023/12/27 04:33:43;;;;;;;4.60;2.70;;;;;;;;;;5072319;28;20020;-58
2023/12/27 04:36:09;;;;;;;4.57;2.70;;;;;;;;;;5072163;28;20044;-59
2023/12/27 04:38:35;;;;;;;4.72;2.80;;;;;;;;;;5072343;28;20033;-58
2023/12/27 04:41:06;;;;;;;4.70;2.80;;;;;;;;;;5072474;28;20453;-58
2023/12/27 04:43:32;;;;;;;4.70;2.80;;;;;;;;;;5072649;28;20033;-58
2023/12/27 04:45:58;;;;;;;4.75;2.80;;;;;;;;;;5072882;28;20118;-56
2023/12/27 04:48:24;;;;;;;5.00;3.00;;;;;;;;;;5072257;28;20101;-58
2023/12/27 04:50:50;;;;;;;4.70;2.75;;;;;;;;;;5072408;28;20051;-57
2023/12/27 04:53:17;;;;;;;4.32;2.60;;;;;;;;;;5072930;28;20381;-60
2023/12/27 04:55:43;;;;;;;4.90;2.90;;;;;;;;;;5072301;28;20035;-60
2023/12/27 04:58:09;;;;;;;4.70;2.80;;;;;;;;;;5072519;28;20025;-55
2023/12/27 05:00:35;;;;;;;4.70;2.80;;;;;;;;;;5071549;28;20099;-55
2023/12/27 05:03:01;;;;;;;4.88;2.90;;;;;;;;;;5073290;28;20020;-60
2023/12/27 05:05:27;;;;;;;5.00;3.00;;;;;;;;;;5073942;28;20036;-60
2023/12/27 05:07:53;;;;;;;5.57;3.10;;;;;;;;;;5074467;28;20102;-60
2023/12/27 05:10:19;;;;;;;4.70;2.80;;;;;;;;;;5073982;28;20025;-60
2023/12/27 05:12:45;;;;;;;4.60;2.75;;;;;;;;;;5073292;28;20021;-59
2023/12/27 05:15:10;;;;;;;4.93;2.92;;;;;;;;;;5066255;28;20028;-58
2023/12/27 05:17:36;;;;;;;5.00;3.00;;;;;;;;;;5057622;28;20104;-59
2023/12/27 05:20:03;;;;;;;4.75;2.80;;;;;;;;;;5055550;28;20036;-59
2023/12/27 05:22:33;;;;;;;5.00;2.90;;;;;;;;;;5054747;28;20490;-61
2023/12/27 05:24:59;;;;;;;5.03;3.00;;;;;;;;;;5054163;28;20028;-61
2023/12/27 05:27:25;;;;;;;4.70;2.85;;;;;;;;;;5055127;28;20021;-59
2023/12/27 05:29:51;;;;;;;4.50;2.70;;;;;;;;;;5054802;28;20028;-59
2023/12/27 05:32:17;;;;;;;4.57;2.80;;;;;;;;;;5050912;28;20655;-58
2023/12/27 05:34:44;;;;;;;4.90;2.85;;;;;;;;;;5054239;28;20029;-58
2023/12/27 05:37:10;;;;;;;4.70;2.80;;;;;;;;;;5057559;28;20528;-60
2023/12/27 05:39:36;;;;;;;4.60;2.70;;;;;;;;;;5057377;28;20545;-60
2023/12/27 05:42:02;;;;;;;4.95;2.97;;;;;;;;;;5056293;28;20021;-58
2023/12/27 05:44:28;;;;;;;5.00;2.95;;;;;;;;;;5056375;28;20093;-59
2023/12/27 05:46:54;;;;;;;5.05;3.00;;;;;;;;;;5056436;28;20076;-61
2023/12/27 05:49:20;;;;;;;5.07;3.08;;;;;;;;;;5055926;28;20013;-60
2023/12/27 05:51:46;;;;;;;4.47;2.70;;;;;;;;;;5055471;28;20076;-59
2023/12/27 05:54:13;;;;;;;4.85;2.90;;;;;;;;;;5051066;28;20015;-58
2023/12/27 05:56:40;;;;;;;4.88;2.90;;;;;;;;;;5051902;28;20036;-61
2023/12/27 05:59:06;;;;;;;5.00;3.00;;;;;;;;;;5054280;28;20445;-60
2023/12/27 06:01:32;;;;;;;4.93;2.90;;;;;;;;;;5055706;28;20017;-60
2023/12/27 06:04:03;;;;;;;5.20;3.10;;;;;;;;;;5056171;28;20081;-60
2023/12/27 06:06:29;;;;;;;4.97;2.90;;;;;;;;;;5060430;28;20452;-58
2023/12/27 06:08:54;;;;;;;5.15;3.10;;;;;;;;;;5059635;28;20025;-61
2023/12/27 06:11:20;;;;;;;8.07;5.35;;;;;;;;;;5057972;28;20407;-61
2023/12/27 06:13:46;;;;;;;4.90;2.88;;;;;;;;;;5052274;28;20046;-60
2023/12/27 06:16:12;;;;;;;5.40;3.20;;;;;;;;;;5055525;28;20753;-62
2023/12/27 06:18:38;;;;;;;5.32;3.13;;;;;;;;;;5055509;28;20052;-61
2023/12/27 06:21:05;;;;;;;5.30;3.10;;;;;;;;;;5055590;28;20033;-61
2023/12/27 06:23:31;;;;;;;5.00;3.00;;;;;;;;;;5051014;28;20025;-61
2023/12/27 06:25:57;;;;;;;5.20;3.10;;;;;;;;;;5052336;28;20124;-60
2023/12/27 06:28:23;;;;;;;5.13;3.00;;;;;;;;;;5056003;28;20017;-60
2023/12/27 06:30:49;;;;;;;5.20;3.08;;;;;;;;;;5055804;28;20462;-61
2023/12/27 06:33:15;;;;;;;5.00;3.00;;;;;;;;;;5055340;28;20453;-61
2023/12/27 06:35:41;;;;;;;5.05;3.00;;;;;;;;;;5055281;28;20041;-59
2023/12/27 06:38:07;;;;;;;5.28;3.17;;;;;;;;;;5055184;28;20072;-62
2023/12/27 06:40:33;;;;;;;5.00;2.92;;;;;;;;;;5050975;28;20029;-60
2023/12/27 06:42:59;;;;;;;5.25;3.10;;;;;;;;;;5054426;28;20096;-61
2023/12/27 06:45:25;;;;;;;5.00;3.00;;;;;;;;;;5054938;28;20029;-61
2023/12/27 06:47:51;;;;;;;5.30;3.20;;;;;;;;;;5055349;28;20081;-60
2023/12/27 06:50:17;;;;;;;5.30;3.15;;;;;;;;;;5055227;28;20021;-65
2023/12/27 06:52:43;;;;;;;6.00;3.55;;;;;;;;;;5055890;28;20025;-60
2023/12/27 06:55:10;;;;;;;5.40;3.20;;;;;;;;;;5065275;28;20090;-60
2023/12/27 06:57:36;;;;;;;5.50;3.25;;;;;;;;;;5075154;28;20146;-61
2023/12/27 07:00:03;;;;;;;5.55;3.30;;;;;;;;;;5075280;28;20054;-61
2023/12/27 07:02:29;;;;;;;5.70;3.40;;;;;;;;;;5074491;28;20531;-61
2023/12/27 07:04:55;;;;;;;6.10;3.70;;;;;;;;;;5074994;28;20024;-60
2023/12/27 07:07:20;;;;;;;5.63;3.30;;;;;;;;;;5075163;28;20553;-59
2023/12/27 07:09:46;;;;;;;5.70;3.38;;;;;;;;;;5075045;28;20036;-62
2023/12/27 07:12:12;;;;;;;5.60;3.30;;;;;;;;;;5074897;28;20044;-61
2023/12/27 07:14:38;;;;;;;5.60;3.30;;;;;;;;;;5075013;28;20048;-60
2023/12/27 07:17:04;;;;;;;5.60;3.30;;;;;;;;;;5074526;28;20548;-61
2023/12/27 07:19:30;;;;;;;5.35;3.22;;;;;;;;;;5075257;28;20028;-61
2023/12/27 07:21:57;;;;;;;5.78;3.45;;;;;;;;;;5074981;28;20036;-59
2023/12/27 07:24:23;;;;;;;6.00;3.50;;;;;;;;;;5075669;28;20398;-61
2023/12/27 07:26:50;;;;;;;6.18;3.70;;;;;;;;;;5074987;28;20025;-61
2023/12/27 07:29:16;;;;;;;5.60;3.33;;;;;;;;;;5075295;28;20099;-61
2023/12/27 07:31:42;;;;;;;6.00;3.58;;;;;;;;;;5074693;28;20066;-58
2023/12/27 07:34:08;;;;;;;5.80;3.40;;;;;;;;;;5074573;28;20759;-60
2023/12/27 07:36:34;;;;;;;5.90;3.50;;;;;;;;;;5074913;28;20035;-61
2023/12/27 07:39:00;;;;;;;6.00;3.55;;;;;;;;;;5075200;28;20028;-61
2023/12/27 07:41:26;;;;;;;6.20;3.67;;;;;;;;;;5074752;28;20028;-61
2023/12/27 07:43:52;;;;;;;5.90;3.50;;;;;;;;;;5072974;28;20043;-59
2023/12/27 07:46:18;;;;;;;5.80;3.50;;;;;;;;;;5074213;28;20104;-61
2023/12/27 07:48:44;;;;;;;6.07;3.60;;;;;;;;;;5073926;28;20067;-62
2023/12/27 07:51:10;;;;;;;5.50;3.28;;;;;;;;;;5072978;28;20028;-62
2023/12/27 07:53:36;;;;;;;6.20;3.70;;;;;;;;;;5074648;28;20067;-62
2023/12/27 07:56:02;;;;;;;5.72;3.40;;;;;;;;;;5075024;28;20069;-59
2023/12/27 07:58:28;;;;;;;5.88;3.50;;;;;;;;;;5074645;28;20024;-61
2023/12/27 08:00:54;;;;;;;5.90;3.50;;;;;;;;;;5069191;28;20052;-60
2023/12/27 08:03:20;;;;;;;5.90;3.50;;;;;;;;;;5054117;28;20025;-61
2023/12/27 08:05:46;;;;;;;6.18;3.67;;;;;;;;;;5054610;28;20059;-61
2023/12/27 08:08:12;;;;;;;6.30;3.70;;;;;;;;;;5054378;28;20024;-61
2023/12/27 08:10:38;;;;;;;6.25;3.70;;;;;;;;;;5053662;28;20085;-59
2023/12/27 08:13:05;;;;;;;6.30;3.75;;;;;;;;;;5052799;28;20094;-60
2023/12/27 08:15:31;;;;;;;6.30;3.70;;;;;;;;;;5049316;28;20030;-61
2023/12/27 08:17:57;;;;;;;7.10;4.20;;;;;;;;;;5052207;28;20025;-61
2023/12/27 08:20:23;;;;;;;6.57;3.92;;;;;;;;;;5053997;28;20029;-60
2023/12/27 08:22:49;;;;;;;6.60;3.92;;;;;;;;;;5053448;28;20056;-61
2023/12/27 08:25:15;;;;;;;7.05;4.20;;;;;;;;;;5053747;28;20049;-61
2023/12/27 08:27:41;;;;;;;7.00;4.15;;;;;;;;;;5049551;28;20021;-59
2023/12/27 08:30:08;;;;;;;6.75;4.10;;;;;;;;;;5051957;28;20789;-59
2023/12/27 08:32:33;;;;;;;8.50;5.13;;;;;;;;;;5053711;28;20107;-59
2023/12/27 08:35:00;;;;;;;7.55;4.45;;;;;;;;;;5053278;28;20021;-62
2023/12/27 08:37:26;;;;;;;7.80;4.65;;;;;;;;;;5053342;28;20017;-60
2023/12/27 08:39:52;;;;;;;7.70;4.57;;;;;;;;;;5054028;28;20036;-61
2023/12/27 08:42:18;;;;;;;7.82;4.70;;;;;;;;;;5053057;28;20017;-60
2023/12/27 08:44:44;;;;;;;8.35;4.93;;;;;;;;;;5048728;28;20057;-60
2023/12/27 08:47:10;;;;;;;7.53;4.50;;;;;;;;;;5045543;28;20491;-61
2023/12/27 08:49:36;;;;;;;8.00;4.70;;;;;;;;;;5057702;28;20039;-61
2023/12/27 08:52:02;;;;;;;8.50;5.00;;;;;;;;;;5058232;28;20478;-60
2023/12/27 08:54:28;;;;;;;7.80;4.65;;;;;;;;;;5058179;28;20024;-61
2023/12/27 08:56:54;;;;;;;8.18;4.85;;;;;;;;;;5057749;28;20033;-57
2023/12/27 08:59:20;;;;;;;7.95;4.75;;;;;;;;;;5052395;28;20147;-59
2023/12/27 09:01:46;;;;;;;8.27;4.93;;;;;;;;;;5051456;28;20119;-55
2023/12/27 09:04:12;;;;;;;7.68;4.57;;;;;;;;;;5051873;28;20540;-57
2023/12/27 09:06:38;;;;;;;7.70;4.57;;;;;;;;;;5051556;28;20041;-55
2023/12/27 09:09:04;;;;;;;8.25;4.90;;;;;;;;;;5051752;28;20406;-55
2023/12/27 09:11:30;;;;;;;8.80;5.20;;;;;;;;;;5051427;28;20017;-57
2023/12/27 09:13:56;;;;;;;7.63;4.60;;;;;;;;;;5053254;28;20028;-57
2023/12/27 09:16:22;;;;;;;8.18;4.80;;;;;;;;;;5039826;28;20033;-57
2023/12/27 09:18:48;;;;;;;7.75;4.57;;;;;;;;;;5047752;28;20530;-57
2023/12/27 09:21:15;;;;;;;7.47;4.45;;;;;;;;;;5053413;28;20107;-56
2023/12/27 09:23:41;;;;;;;8.40;5.00;;;;;;;;;;5060963;28;20099;-56
2023/12/27 09:26:13;;;;;;;7.63;4.55;;;;;;;;;;5071203;28;20036;-58
2023/12/27 09:28:39;;;;;;;7.53;4.50;;;;;;;;;;5071473;28;20032;-55
2023/12/27 09:31:05;;;;;;;8.00;4.80;;;;;;;;;;5063579;28;20029;-59
2023/12/27 09:33:31;;;;;;;7.78;4.60;;;;;;;;;;5071319;28;20468;-54
2023/12/27 09:35:57;;;;;;;7.45;4.50;;;;;;;;;;5056680;28;20121;-57
2023/12/27 09:38:24;;;;;;;7.40;4.40;;;;;;;;;;5049938;28;20452;-55
2023/12/27 09:40:50;;;;;;;7.30;4.50;;;;;;;;;;5050934;28;20025;-56
2023/12/27 09:43:17;;;;;;;6.95;4.15;;;;;;;;;;5051079;28;20044;-57
2023/12/27 09:45:43;;;;;;;6.90;4.18;;;;;;;;;;5051077;28;20025;-57
2023/12/27 09:48:11;;;;;;;6.72;4.00;;;;;;;;;;5064106;28;20413;-58
2023/12/27 09:50:38;;;;;;;6.90;4.15;;;;;;;;;;5070860;28;20082;-58
2023/12/27 09:53:05;;;;;;;7.20;4.28;;;;;;;;;;5070776;28;20049;-59
2023/12/27 09:55:32;;;;;;;7.25;4.30;;;;;;;;;;5071139;28;20467;-59
2023/12/27 09:57:58;;;;;;;6.72;4.00;;;;;;;;;;5071589;28;20035;-57
2023/12/27 10:00:28;;;;;;;7.30;4.40;;;;;;;;;;5069479;28;20025;-56
2023/12/27 10:02:58;;;;;;;7.97;4.82;;;;;;;;;;5070556;28;20032;-57
2023/12/27 10:05:27;;;;;;;7.28;4.55;;;;;;;;;;5070775;28;20112;-55
2023/12/27 10:07:53;;;;;;;7.07;4.20;;;;;;;;;;5070865;28;20045;-53
2023/12/27 10:10:20;;;;;;;6.75;4.00;;;;;;;;;;5069417;28;20021;-53
2023/12/27 10:12:47;;;;;;;8.00;5.05;;;;;;;;;;5070556;28;20493;-56
2023/12/27 10:15:14;;;;;;;6.60;3.90;;;;;;;;;;5052981;28;20028;-57
2023/12/27 10:17:40;;;;;;;6.90;4.10;;;;;;;;;;5048328;28;20037;-56
2023/12/27 10:20:07;;;;;;;7.53;4.53;;;;;;;;;;5050589;28;20032;-51
2023/12/27 10:22:34;;;;;;;6.95;4.20;;;;;;;;;;5063197;28;20032;-55
2023/12/27 10:25:00;;;;;;;7.10;4.22;;;;;;;;;;5068889;28;20021;-57
2023/12/27 10:27:30;;;;;;;6.78;4.00;;;;;;;;;;5070455;28;20085;-53
2023/12/27 10:29:56;;;;;;;7.00;4.20;;;;;;;;;;5070661;28;20017;-55
2023/12/27 10:32:25;;;;;;;7.00;4.20;;;;;;;;;;5070067;28;20087;-52
2023/12/27 10:34:51;;;;;;;6.90;4.10;;;;;;;;;;5070325;28;20016;-57
2023/12/27 10:37:17;;;;;;;6.80;4.00;;;;;;;;;;5069013;28;20090;-56
2023/12/27 10:39:47;;;;;;;6.22;3.70;;;;;;;;;;5068733;28;20029;-56
2023/12/27 10:42:16;;;;;;;6.90;4.10;;;;;;;;;;5069518;28;20398;-56
2023/12/27 10:44:42;;;;;;;6.13;3.60;;;;;;;;;;5069609;28;20203;-53
2023/12/27 10:47:11;;;;;;;6.38;3.75;;;;;;;;;;5069877;28;20523;-56
2023/12/27 10:49:39;;;;;;;6.40;3.78;;;;;;;;;;5070078;28;20432;-54
2023/12/27 10:52:06;;;;;;;7.25;4.50;;;;;;;;;;5069597;28;20020;-56
2023/12/27 10:54:33;;;;;;;6.05;3.60;;;;;;;;;;5068452;28;20062;-53
2023/12/27 10:57:01;;;;;;;6.30;3.70;;;;;;;;;;5069783;28;20017;-56
2023/12/27 10:59:27;;;;;;;5.90;3.50;;;;;;;;;;5069740;28;20113;-57
2023/12/27 11:01:53;;;;;;;5.90;3.50;;;;;;;;;;5069598;28;20390;-56
2023/12/27 11:04:21;;;;;;;6.63;3.90;;;;;;;;;;5069657;28;20048;-56
2023/12/27 11:06:48;;;;;;;6.50;3.90;;;;;;;;;;5069500;28;20031;-57
2023/12/27 11:09:15;;;;;;;6.32;3.78;;;;;;;;;;5069506;28;20029;-55
2023/12/27 11:11:41;;;;;;;6.50;3.90;;;;;;;;;;5053965;28;20066;-55
2023/12/27 11:14:08;;;;;;;7.63;4.50;;;;;;;;;;5049126;28;20009;-56
2023/12/27 11:16:35;;;;;;;7.63;4.50;;;;;;;;;;5044415;28;20056;-54
2023/12/27 11:19:07;;;;;;;7.30;4.40;;;;;;;;;;5047753;28;20506;-55
2023/12/27 11:21:34;;;;;;;8.30;4.90;;;;;;;;;;5048946;28;20025;-52
2023/12/27 11:24:00;;;;;;;7.70;4.60;;;;;;;;;;5049089;28;20025;-56
2023/12/27 11:26:27;;;;;;;8.00;4.80;;;;;;;;;;5048972;28;20028;-57
2023/12/27 11:28:53;;;;;;;7.93;4.72;;;;;;;;;;5049201;28;20029;-56
2023/12/27 11:31:19;;;;;;;7.72;4.63;;;;;;;;;;5048683;28;20363;-55
2023/12/27 11:33:46;;;;;;;7.25;4.30;;;;;;;;;;5048689;28;20116;-51
2023/12/27 11:36:13;;;;;;;7.25;4.32;;;;;;;;;;5049134;28;20029;-55
2023/12/27 11:38:43;;;;;;;7.20;4.30;;;;;;;;;;5049055;28;20048;-55
2023/12/27 11:41:10;;;;;;;7.97;4.70;;;;;;;;;;5048680;28;20018;-52
2023/12/27 11:44:06;;;;;;;7.05;4.20;;;;;;;;;;5048357;28;20433;-57
2023/12/27 11:46:32;;;;;;;7.28;4.35;;;;;;;;;;5044306;28;20063;-54
2023/12/27 11:48:59;;;;;;;7.55;4.53;;;;;;;;;;5048376;28;20070;-58
2023/12/27 11:51:27;;;;;;;7.53;4.50;;;;;;;;;;5048404;28;20017;-57
2023/12/27 11:53:56;;;;;;;7.22;4.30;;;;;;;;;;5044773;28;20391;-54
2023/12/27 11:56:23;;;;;;;6.70;4.00;;;;;;;;;;5048855;28;20017;-56
2023/12/27 11:58:50;;;;;;;6.93;4.13;;;;;;;;;;5048237;28;20060;-56
2023/12/27 12:01:22;;;;;;;6.80;4.00;;;;;;;;;;5048149;28;20474;-56
2023/12/27 12:03:56;;;;;;;7.10;4.20;;;;;;;;;;5043691;28;20041;-51
2023/12/27 12:06:35;;;;;;;7.55;4.45;;;;;;;;;;5048120;28;20021;-55
2023/12/27 12:09:02;;;;;;;7.45;4.50;;;;;;;;;;5048078;28;20179;-57
2023/12/27 12:11:28;;;;;;;6.88;4.10;;;;;;;;;;5052277;28;20017;-54
2023/12/27 12:13:55;;;;;;;7.20;4.32;;;;;;;;;;5065595;28;20112;-57
2023/12/27 12:16:21;;;;;;;6.90;4.13;;;;;;;;;;5048463;28;20082;-54
2023/12/27 12:18:47;;;;;;;6.97;4.20;;;;;;;;;;5048445;28;20032;-55
2023/12/27 12:21:13;;;;;;;6.70;3.97;;;;;;;;;;5048074;28;20051;-58
2023/12/27 12:23:39;;;;;;;6.70;4.00;;;;;;;;;;5047389;28;20417;-58
2023/12/27 12:26:05;;;;;;;6.88;4.10;;;;;;;;;;5048005;28;20025;-57
2023/12/27 12:28:32;;;;;;;7.32;4.40;;;;;;;;;;5048215;28;20028;-55
2023/12/27 12:30:58;;;;;;;6.97;4.15;;;;;;;;;;5047919;28;20037;-56
2023/12/27 12:33:24;;;;;;;7.10;4.20;;;;;;;;;;5048311;28;20481;-58
2023/12/27 12:35:51;;;;;;;6.60;3.90;;;;;;;;;;5048551;28;20036;-57
2023/12/27 12:38:18;;;;;;;6.20;3.70;;;;;;;;;;5046875;28;20040;-56
2023/12/27 12:40:44;;;;;;;5.97;3.53;;;;;;;;;;5048185;28;20029;-56
2023/12/27 12:43:10;;;;;;;6.10;3.60;;;;;;;;;;5048312;28;20502;-56
2023/12/27 12:45:36;;;;;;;5.90;3.58;;;;;;;;;;5047881;28;20025;-53
2023/12/27 12:48:02;;;;;;;6.30;3.70;;;;;;;;;;5048313;28;20065;-52
2023/12/27 12:50:29;;;;;;;6.20;3.70;;;;;;;;;;5048390;28;20017;-57
2023/12/27 12:52:55;;;;;;;6.35;3.80;;;;;;;;;;5069382;23;20065;-54
2023/12/27 12:55:28;;;;;;;6.30;3.75;;;;;;;;;;5050023;28;20033;-57
2023/12/27 12:57:55;;;;;;;6.80;4.00;;;;;;;;;;5050063;28;20054;-53
2023/12/27 13:00:21;;;;;;;6.95;4.10;;;;;;;;;;5049914;28;20075;-55
2023/12/27 13:02:53;;;;;;;6.40;3.80;;;;;;;;;;5050117;28;20075;-57
2023/12/27 13:05:20;;;;;;;7.05;4.15;;;;;;;;;;5048953;28;20033;-58
2023/12/27 13:07:48;;;;;;;6.78;4.03;;;;;;;;;;5049779;28;20479;-54
2023/12/27 13:10:14;;;;;;;6.70;4.00;;;;;;;;;;5049974;28;20395;-58
2023/12/27 13:12:41;;;;;;;6.68;4.00;;;;;;;;;;5049874;28;20096;-54
2023/12/27 13:15:07;;;;;;;6.68;3.97;;;;;;;;;;5049218;28;20040;-55
2023/12/27 13:17:33;;;;;;;6.70;3.97;;;;;;;;;;5049518;28;20427;-54
2023/12/27 13:19:59;;;;;;;6.78;4.00;;;;;;;;;;5050502;28;20036;-51
2023/12/27 13:22:25;;;;;;;6.68;3.95;;;;;;;;;;5049950;28;20503;-51
2023/12/27 13:24:51;;;;;;;6.70;3.95;;;;;;;;;;5049597;28;20025;-50
2023/12/27 13:27:17;;;;;;;6.85;4.10;;;;;;;;;;5053647;28;20164;-52
2023/12/27 13:29:43;;;;;;;6.85;4.10;;;;;;;;;;5028451;28;20067;-53
2023/12/27 13:32:09;;;;;;;7.00;4.18;;;;;;;;;;5048716;28;20104;-52
2023/12/27 13:34:36;;;;;;;6.80;4.03;;;;;;;;;;5039589;28;20076;-55
2023/12/27 13:37:03;;;;;;;7.25;4.28;;;;;;;;;;5035975;28;20036;-53
2023/12/27 13:39:29;;;;;;;7.03;4.20;;;;;;;;;;5031552;28;20021;-55
2023/12/27 13:41:55;;;;;;;7.15;4.28;;;;;;;;;;5051838;28;20079;-54
2023/12/27 13:44:21;;;;;;;7.10;4.25;;;;;;;;;;5055951;28;20092;-53
2023/12/27 13:46:47;;;;;;;6.70;4.00;;;;;;;;;;5051981;28;20173;-53
2023/12/27 13:49:13;;;;;;;6.90;4.10;;;;;;;;;;5073504;28;20530;-54
2023/12/27 13:51:39;;;;;;;7.32;4.25;;;;;;;;;;5073165;28;20013;-51
2023/12/27 13:54:07;;;;;;;7.00;4.13;;;;;;;;;;5072621;28;20489;-56
2023/12/27 13:56:33;;;;;;;6.90;4.10;;;;;;;;;;5054996;28;20063;-56
2023/12/27 13:58:59;;;;;;;6.93;4.10;;;;;;;;;;5072937;28;20047;-50
2023/12/27 14:01:25;;;;;;;7.20;4.30;;;;;;;;;;5072718;28;20083;-52
2023/12/27 14:03:51;;;;;;;6.80;4.07;;;;;;;;;;5072928;28;20024;-52
2023/12/27 14:06:17;;;;;;;7.43;4.43;;;;;;;;;;5072826;28;20058;-54
2023/12/27 14:08:43;;;;;;;6.65;3.97;;;;;;;;;;5068969;28;20144;-51
2023/12/27 14:11:09;;;;;;;6.90;4.10;;;;;;;;;;5050820;28;20091;-52
2023/12/27 14:13:36;;;;;;;6.50;3.88;;;;;;;;;;5034724;28;20495;-54
2023/12/27 14:16:03;;;;;;;7.10;4.20;;;;;;;;;;5052534;28;20475;-51
2023/12/27 14:18:29;;;;;;;6.90;4.10;;;;;;;;;;5052378;28;20020;-52
2023/12/27 14:20:55;;;;;;;7.30;4.40;;;;;;;;;;5033685;28;20131;-54
2023/12/27 14:23:21;;;;;;;7.40;4.40;;;;;;;;;;5050377;28;20407;-56
2023/12/27 14:41:06;;;;;;;7.07;4.28;;;;;;;;;;5051054;28;20059;-54
2023/12/27 14:43:32;;;;;;;7.45;4.43;;;;;;;;;;5051936;28;20021;-53
2023/12/27 14:45:59;;;;;;;7.60;4.50;;;;;;;;;;5033367;28;20017;-54
2023/12/27 14:48:28;;;;;;;7.38;4.40;;;;;;;;;;5033908;28;20027;-51
2023/12/27 14:50:54;;;;;;;7.55;4.53;;;;;;;;;;5051660;28;20017;-53
2023/12/27 14:53:20;;;;;;;7.20;4.30;;;;;;;;;;5033674;28;20033;-55